sensor_id;sensor_type;location;lat;lon;timestamp;pressure;altitude;pressure_sealevel;temperature;humidity
7802;BME280;3945;48.952;9.506;2023-06-14T00:01:09;97457.09;;;17.87;43.92
7802;BME280;3945;48.952;9.506;2023-06-14T00:03:38;97460.91;;;17.86;43.85
7802;BME280;3945;48.952;9.506;2023-06-14T00:06:05;97465.09;;;17.79;44.40
7802;BME280;3945;48.952;9.506;2023-06-14T00:08:33;97461.09;;;17.76;44.12
7802;BME280;3945;48.952;9.506;2023-06-14T00:10:59;97462.28;;;17.70;44.57
7802;BME280;3945;48.952;9.506;2023-06-14T00:13:26;97463.69;;;17.68;44.63
7802;BME280;3945;48.952;9.506;2023-06-14T00:15:52;97459.19;;;17.63;44.97
7802;BME280;3945;48.952;9.506;2023-06-14T00:18:20;97460.00;;;17.64;45.07
7802;BME280;3945;48.952;9.506;2023-06-14T00:20:49;97458.16;;;17.59;44.83
7802;BME280;3945;48.952;9.506;2023-06-14T00:23:16;97459.25;;;17.58;44.54
7802;BME280;3945;48.952;9.506;2023-06-14T00:25:44;97459.63;;;17.51;45.48
7802;BME280;3945;48.952;9.506;2023-06-14T00:28:10;97459.94;;;17.50;45.23
7802;BME280;3945;48.952;9.506;2023-06-14T00:30:37;97453.84;;;17.44;45.10
7802;BME280;3945;48.952;9.506;2023-06-14T00:33:03;97464.41;;;17.41;45.24
7802;BME280;3945;48.952;9.506;2023-06-14T00:35:29;97451.25;;;17.39;45.26
7802;BME280;3945;48.952;9.506;2023-06-14T00:37:56;97454.50;;;17.36;45.42
7802;BME280;3945;48.952;9.506;2023-06-14T00:40:23;97454.31;;;17.33;45.91
7802;BME280;3945;48.952;9.506;2023-06-14T00:42:50;97453.34;;;17.29;45.59
7802;BME280;3945;48.952;9.506;2023-06-14T00:45:17;97458.50;;;17.25;45.71
7802;BME280;3945;48.952;9.506;2023-06-14T00:47:45;97451.31;;;17.21;45.70
7802;BME280;3945;48.952;9.506;2023-06-14T00:50:12;97459.16;;;17.17;46.24
7802;BME280;3945;48.952;9.506;2023-06-14T00:52:39;97455.25;;;17.09;46.30
7802;BME280;3945;48.952;9.506;2023-06-14T00:55:06;97457.94;;;17.09;45.80
7802;BME280;3945;48.952;9.506;2023-06-14T00:57:33;97455.84;;;17.06;46.25
7802;BME280;3945;48.952;9.506;2023-06-14T01:00:05;97465.28;;;17.04;46.13
7802;BME280;3945;48.952;9.506;2023-06-14T01:02:34;97461.00;;;17.03;46.40
7802;BME280;3945;48.952;9.506;2023-06-14T01:05:02;97461.28;;;17.01;46.20
7802;BME280;3945;48.952;9.506;2023-06-14T01:07:34;97459.78;;;16.95;46.33
7802;BME280;3945;48.952;9.506;2023-06-14T01:10:15;97454.13;;;16.97;46.53
7802;BME280;3945;48.952;9.506;2023-06-14T01:12:52;97460.88;;;16.94;46.90
7802;BME280;3945;48.952;9.506;2023-06-14T01:15:23;97458.28;;;16.89;46.72
7802;BME280;3945;48.952;9.506;2023-06-14T01:17:50;97460.44;;;16.87;46.75
7802;BME280;3945;48.952;9.506;2023-06-14T01:20:20;97456.75;;;16.83;46.77
7802;BME280;3945;48.952;9.506;2023-06-14T01:22:52;97461.63;;;16.81;46.93
7802;BME280;3945;48.952;9.506;2023-06-14T01:25:19;97469.16;;;16.79;46.94
7802;BME280;3945;48.952;9.506;2023-06-14T01:27:48;97459.88;;;16.71;47.28
7802;BME280;3945;48.952;9.506;2023-06-14T01:30:17;97452.94;;;16.70;47.22
7802;BME280;3945;48.952;9.506;2023-06-14T01:32:44;97454.88;;;16.65;47.58
7802;BME280;3945;48.952;9.506;2023-06-14T01:35:11;97464.03;;;16.64;47.39
7802;BME280;3945;48.952;9.506;2023-06-14T01:37:38;97456.81;;;16.59;47.39
7802;BME280;3945;48.952;9.506;2023-06-14T01:40:09;97450.19;;;16.52;47.85
7802;BME280;3945;48.952;9.506;2023-06-14T01:42:37;97457.97;;;16.53;47.34
7802;BME280;3945;48.952;9.506;2023-06-14T01:45:06;97463.09;;;16.50;47.31
7802;BME280;3945;48.952;9.506;2023-06-14T01:47:33;97459.34;;;16.51;47.33
7802;BME280;3945;48.952;9.506;2023-06-14T01:50:01;97460.13;;;16.51;47.25
7802;BME280;3945;48.952;9.506;2023-06-14T01:52:27;97454.19;;;16.54;47.20
7802;BME280;3945;48.952;9.506;2023-06-14T01:54:54;97457.69;;;16.55;47.23
7802;BME280;3945;48.952;9.506;2023-06-14T01:57:22;97454.75;;;16.51;47.12
7802;BME280;3945;48.952;9.506;2023-06-14T01:59:49;97461.75;;;16.52;46.98
7802;BME280;3945;48.952;9.506;2023-06-14T02:02:16;97452.88;;;16.52;46.79
7802;BME280;3945;48.952;9.506;2023-06-14T02:04:42;97456.59;;;16.56;46.31
7802;BME280;3945;48.952;9.506;2023-06-14T02:07:09;97455.19;;;16.58;46.49
7802;BME280;3945;48.952;9.506;2023-06-14T02:09:35;97455.19;;;16.58;46.60
7802;BME280;3945;48.952;9.506;2023-06-14T02:12:02;97455.47;;;16.62;46.22
7802;BME280;3945;48.952;9.506;2023-06-14T02:14:30;97452.97;;;16.65;45.95
7802;BME280;3945;48.952;9.506;2023-06-14T02:16:56;97451.91;;;16.66;46.29
7802;BME280;3945;48.952;9.506;2023-06-14T02:19:24;97447.59;;;16.65;46.62
7802;BME280;3945;48.952;9.506;2023-06-14T02:21:50;97446.31;;;16.63;46.37
7802;BME280;3945;48.952;9.506;2023-06-14T02:24:16;97451.97;;;16.61;46.10
7802;BME280;3945;48.952;9.506;2023-06-14T02:26:43;97454.38;;;16.63;46.27
7802;BME280;3945;48.952;9.506;2023-06-14T02:29:10;97455.47;;;16.62;45.93
7802;BME280;3945;48.952;9.506;2023-06-14T02:31:41;97447.91;;;16.64;46.06
7802;BME280;3945;48.952;9.506;2023-06-14T02:34:07;97455.19;;;16.63;46.24
7802;BME280;3945;48.952;9.506;2023-06-14T02:36:34;97462.72;;;16.61;46.43
7802;BME280;3945;48.952;9.506;2023-06-14T02:39:07;97457.69;;;16.55;46.91
7802;BME280;3945;48.952;9.506;2023-06-14T02:41:34;97458.06;;;16.48;47.41
7802;BME280;3945;48.952;9.506;2023-06-14T02:44:00;97457.81;;;16.45;47.42
7802;BME280;3945;48.952;9.506;2023-06-14T02:46:27;97456.53;;;16.42;47.46
7802;BME280;3945;48.952;9.506;2023-06-14T02:48:55;97460.06;;;16.37;47.67
7802;BME280;3945;48.952;9.506;2023-06-14T02:51:21;97456.84;;;16.35;47.24
7802;BME280;3945;48.952;9.506;2023-06-14T02:53:47;97446.13;;;16.35;47.58
7802;BME280;3945;48.952;9.506;2023-06-14T02:56:14;97456.56;;;16.37;47.54
7802;BME280;3945;48.952;9.506;2023-06-14T02:58:42;97458.47;;;16.36;47.59
7802;BME280;3945;48.952;9.506;2023-06-14T03:01:09;97454.78;;;16.32;47.71
7802;BME280;3945;48.952;9.506;2023-06-14T03:03:38;97451.84;;;16.29;47.54
7802;BME280;3945;48.952;9.506;2023-06-14T03:06:05;97445.38;;;16.30;48.00
7802;BME280;3945;48.952;9.506;2023-06-14T03:08:34;97454.25;;;16.30;47.82
7802;BME280;3945;48.952;9.506;2023-06-14T03:11:04;97456.72;;;16.27;47.90
7802;BME280;3945;48.952;9.506;2023-06-14T03:13:31;97453.72;;;16.28;48.08
7802;BME280;3945;48.952;9.506;2023-06-14T03:15:58;97461.03;;;16.28;48.40
7802;BME280;3945;48.952;9.506;2023-06-14T03:18:27;97452.97;;;16.28;48.03
7802;BME280;3945;48.952;9.506;2023-06-14T03:20:54;97460.41;;;16.31;48.19
7802;BME280;3945;48.952;9.506;2023-06-14T03:23:23;97461.03;;;16.28;47.69
7802;BME280;3945;48.952;9.506;2023-06-14T03:25:50;97463.09;;;16.31;47.67
7802;BME280;3945;48.952;9.506;2023-06-14T03:28:17;97462.81;;;16.32;47.68
7802;BME280;3945;48.952;9.506;2023-06-14T03:30:43;97459.06;;;16.33;47.84
7802;BME280;3945;48.952;9.506;2023-06-14T03:33:10;97467.13;;;16.33;48.13
7802;BME280;3945;48.952;9.506;2023-06-14T03:35:37;97462.03;;;16.32;48.03
7802;BME280;3945;48.952;9.506;2023-06-14T03:38:03;97475.44;;;16.32;47.80
7802;BME280;3945;48.952;9.506;2023-06-14T03:40:31;97476.53;;;16.31;48.35
7802;BME280;3945;48.952;9.506;2023-06-14T03:42:58;97470.38;;;16.30;48.02
7802;BME280;3945;48.952;9.506;2023-06-14T03:45:25;97472.75;;;16.32;48.94
7802;BME280;3945;48.952;9.506;2023-06-14T03:47:52;97469.84;;;16.28;49.16
7802;BME280;3945;48.952;9.506;2023-06-14T03:50:19;97479.50;;;16.29;48.20
7802;BME280;3945;48.952;9.506;2023-06-14T03:52:47;97487.78;;;16.33;48.80
7802;BME280;3945;48.952;9.506;2023-06-14T03:55:14;97497.22;;;16.30;48.67
7802;BME280;3945;48.952;9.506;2023-06-14T03:57:42;97500.69;;;16.31;48.59
7802;BME280;3945;48.952;9.506;2023-06-14T04:00:10;97502.06;;;16.28;48.92
7802;BME280;3945;48.952;9.506;2023-06-14T04:02:37;97502.06;;;16.28;48.90
7802;BME280;3945;48.952;9.506;2023-06-14T04:05:04;97501.28;;;16.28;49.22
7802;BME280;3945;48.952;9.506;2023-06-14T04:07:34;97501.56;;;16.26;49.36
7802;BME280;3945;48.952;9.506;2023-06-14T04:10:08;97507.75;;;16.27;49.53
7802;BME280;3945;48.952;9.506;2023-06-14T04:12:35;97505.63;;;16.24;49.50
7802;BME280;3945;48.952;9.506;2023-06-14T04:15:04;97511.00;;;16.24;49.63
7802;BME280;3945;48.952;9.506;2023-06-14T04:17:32;97520.41;;;16.21;50.11
7802;BME280;3945;48.952;9.506;2023-06-14T04:19:59;97512.94;;;16.18;50.34
7802;BME280;3945;48.952;9.506;2023-06-14T04:22:26;97519.13;;;16.19;50.49
7802;BME280;3945;48.952;9.506;2023-06-14T04:24:53;97518.53;;;16.22;50.68
7802;BME280;3945;48.952;9.506;2023-06-14T04:27:20;97519.31;;;16.22;50.96
7802;BME280;3945;48.952;9.506;2023-06-14T04:29:50;97520.94;;;16.23;51.31
7802;BME280;3945;48.952;9.506;2023-06-14T04:32:23;97507.22;;;16.25;50.55
7802;BME280;3945;48.952;9.506;2023-06-14T04:34:51;97525.94;;;16.30;51.35
7802;BME280;3945;48.952;9.506;2023-06-14T04:37:19;97525.66;;;16.31;51.56
7802;BME280;3945;48.952;9.506;2023-06-14T04:39:47;97526.47;;;16.32;52.03
7802;BME280;3945;48.952;9.506;2023-06-14T04:42:13;97522.91;;;16.36;51.77
7802;BME280;3945;48.952;9.506;2023-06-14T04:44:41;97525.59;;;16.36;51.81
7802;BME280;3945;48.952;9.506;2023-06-14T04:47:08;97524.50;;;16.37;51.92
7802;BME280;3945;48.952;9.506;2023-06-14T04:49:37;97532.28;;;16.39;52.33
7802;BME280;3945;48.952;9.506;2023-06-14T04:52:06;97535.19;;;16.42;52.12
7802;BME280;3945;48.952;9.506;2023-06-14T04:54:32;97545.09;;;16.47;52.22
7802;BME280;3945;48.952;9.506;2023-06-14T04:56:59;97542.91;;;16.49;52.02
7802;BME280;3945;48.952;9.506;2023-06-14T04:59:25;97547.69;;;16.52;52.18
7802;BME280;3945;48.952;9.506;2023-06-14T05:01:52;97547.69;;;16.52;52.25
7802;BME280;3945;48.952;9.506;2023-06-14T05:04:19;97549.22;;;16.58;52.48
7802;BME280;3945;48.952;9.506;2023-06-14T05:06:48;97554.50;;;16.68;52.13
7802;BME280;3945;48.952;9.506;2023-06-14T05:09:14;97548.53;;;16.71;52.35
7802;BME280;3945;48.952;9.506;2023-06-14T05:11:41;97556.47;;;16.82;51.74
7802;BME280;3945;48.952;9.506;2023-06-14T05:14:09;97545.66;;;16.87;52.95
7802;BME280;3945;48.952;9.506;2023-06-14T05:16:35;97551.34;;;17.04;52.88
7802;BME280;3945;48.952;9.506;2023-06-14T05:19:02;97561.16;;;17.13;52.46
7802;BME280;3945;48.952;9.506;2023-06-14T05:21:29;97555.59;;;17.24;52.77
7802;BME280;3945;48.952;9.506;2023-06-14T05:23:58;97562.91;;;17.37;52.60
7802;BME280;3945;48.952;9.506;2023-06-14T05:26:24;97561.69;;;17.48;51.96
7802;BME280;3945;48.952;9.506;2023-06-14T05:28:53;97559.59;;;17.58;52.22
7802;BME280;3945;48.952;9.506;2023-06-14T05:31:21;97566.47;;;17.70;51.34
7802;BME280;3945;48.952;9.506;2023-06-14T05:33:48;97572.25;;;17.77;51.68
7802;BME280;3945;48.952;9.506;2023-06-14T05:36:15;97576.44;;;17.83;51.00
7802;BME280;3945;48.952;9.506;2023-06-14T05:38:41;97570.16;;;17.87;51.41
7802;BME280;3945;48.952;9.506;2023-06-14T05:41:09;97566.50;;;17.97;51.33
7802;BME280;3945;48.952;9.506;2023-06-14T05:43:36;97570.41;;;18.05;50.95
7802;BME280;3945;48.952;9.506;2023-06-14T05:46:02;97571.22;;;18.05;51.60
7802;BME280;3945;48.952;9.506;2023-06-14T05:48:30;97580.91;;;18.20;51.14
7802;BME280;3945;48.952;9.506;2023-06-14T05:50:57;97573.22;;;18.27;50.88
7802;BME280;3945;48.952;9.506;2023-06-14T05:53:23;97573.34;;;18.36;50.29
7802;BME280;3945;48.952;9.506;2023-06-14T05:55:50;97574.72;;;18.47;51.32
7802;BME280;3945;48.952;9.506;2023-06-14T05:58:20;97572.72;;;18.52;49.90
7802;BME280;3945;48.952;9.506;2023-06-14T06:00:47;97572.41;;;18.54;50.29
7802;BME280;3945;48.952;9.506;2023-06-14T06:03:13;97575.03;;;18.59;49.84
7802;BME280;3945;48.952;9.506;2023-06-14T06:05:40;97577.81;;;18.67;50.41
7802;BME280;3945;48.952;9.506;2023-06-14T06:08:06;97571.94;;;18.79;49.90
7802;BME280;3945;48.952;9.506;2023-06-14T06:10:33;97575.47;;;18.88;49.98
7802;BME280;3945;48.952;9.506;2023-06-14T06:12:59;97572.69;;;18.93;49.75
7802;BME280;3945;48.952;9.506;2023-06-14T06:15:27;97574.56;;;19.06;49.52
7802;BME280;3945;48.952;9.506;2023-06-14T06:17:54;97581.63;;;19.16;49.85
7802;BME280;3945;48.952;9.506;2023-06-14T06:20:21;97573.91;;;19.23;49.35
7802;BME280;3945;48.952;9.506;2023-06-14T06:22:52;97579.50;;;19.27;49.13
7802;BME280;3945;48.952;9.506;2023-06-14T06:25:19;97583.16;;;19.31;49.10
7802;BME280;3945;48.952;9.506;2023-06-14T06:27:47;97585.84;;;19.31;49.33
7802;BME280;3945;48.952;9.506;2023-06-14T06:30:20;97584.03;;;19.40;49.01
7802;BME280;3945;48.952;9.506;2023-06-14T06:32:48;97587.41;;;19.45;49.24
7802;BME280;3945;48.952;9.506;2023-06-14T06:35:14;97594.69;;;19.59;48.79
7802;BME280;3945;48.952;9.506;2023-06-14T06:37:41;97590.13;;;19.68;48.77
7802;BME280;3945;48.952;9.506;2023-06-14T06:40:09;97596.31;;;19.91;49.90
7802;BME280;3945;48.952;9.506;2023-06-14T06:42:39;97590.88;;;20.13;48.12
7802;BME280;3945;48.952;9.506;2023-06-14T06:45:06;97596.97;;;20.27;48.04
7802;BME280;3945;48.952;9.506;2023-06-14T06:47:32;97605.75;;;20.33;48.23
7802;BME280;3945;48.952;9.506;2023-06-14T06:50:01;97599.91;;;20.39;47.89
7802;BME280;3945;48.952;9.506;2023-06-14T06:52:27;97600.13;;;20.51;47.94
7802;BME280;3945;48.952;9.506;2023-06-14T06:54:54;97603.66;;;20.60;47.59
7802;BME280;3945;48.952;9.506;2023-06-14T06:57:21;97613.25;;;20.75;48.02
7802;BME280;3945;48.952;9.506;2023-06-14T06:59:48;97605.47;;;20.91;47.67
7802;BME280;3945;48.952;9.506;2023-06-14T07:02:15;97609.97;;;21.04;47.90
7802;BME280;3945;48.952;9.506;2023-06-14T07:04:41;97612.38;;;21.14;47.19
7802;BME280;3945;48.952;9.506;2023-06-14T07:07:09;97615.44;;;21.30;46.86
7802;BME280;3945;48.952;9.506;2023-06-14T07:09:36;97608.44;;;21.37;46.79
7802;BME280;3945;48.952;9.506;2023-06-14T07:12:03;97617.84;;;21.49;46.24
7802;BME280;3945;48.952;9.506;2023-06-14T07:14:30;97617.66;;;21.62;46.73
7802;BME280;3945;48.952;9.506;2023-06-14T07:16:56;97620.38;;;21.79;45.94
7802;BME280;3945;48.952;9.506;2023-06-14T07:19:23;97620.66;;;21.95;45.90
7802;BME280;3945;48.952;9.506;2023-06-14T07:21:49;97624.44;;;22.20;45.59
7802;BME280;3945;48.952;9.506;2023-06-14T07:24:17;97626.94;;;22.42;45.83
7802;BME280;3945;48.952;9.506;2023-06-14T07:26:46;97627.06;;;22.54;44.12
7802;BME280;3945;48.952;9.506;2023-06-14T07:29:13;97639.28;;;22.69;44.62
7802;BME280;3945;48.952;9.506;2023-06-14T07:31:39;97630.06;;;22.91;44.10
7802;BME280;3945;48.952;9.506;2023-06-14T07:34:06;97626.16;;;23.09;44.81
7802;BME280;3945;48.952;9.506;2023-06-14T07:36:32;97626.31;;;23.33;45.04
7802;BME280;3945;48.952;9.506;2023-06-14T07:38:59;97635.47;;;23.50;42.06
7802;BME280;3945;48.952;9.506;2023-06-14T07:41:29;97626.06;;;23.68;43.76
7802;BME280;3945;48.952;9.506;2023-06-14T07:43:56;97637.75;;;23.81;41.49
7802;BME280;3945;48.952;9.506;2023-06-14T07:46:22;97633.38;;;23.55;42.12
7802;BME280;3945;48.952;9.506;2023-06-14T07:48:49;97639.81;;;23.63;42.75
7802;BME280;3945;48.952;9.506;2023-06-14T07:51:16;97637.44;;;23.82;41.41
7802;BME280;3945;48.952;9.506;2023-06-14T07:53:43;97637.13;;;23.84;41.84
7802;BME280;3945;48.952;9.506;2023-06-14T07:56:10;97642.81;;;23.91;41.70
7802;BME280;3945;48.952;9.506;2023-06-14T07:58:38;97638.41;;;23.98;42.18
7802;BME280;3945;48.952;9.506;2023-06-14T08:01:04;97637.06;;;24.04;42.25
7802;BME280;3945;48.952;9.506;2023-06-14T08:03:33;97639.06;;;24.28;41.33
7802;BME280;3945;48.952;9.506;2023-06-14T08:05:59;97636.94;;;24.34;41.64
7802;BME280;3945;48.952;9.506;2023-06-14T08:08:26;97640.00;;;24.44;40.97
7802;BME280;3945;48.952;9.506;2023-06-14T08:10:53;97636.63;;;24.47;40.86
7802;BME280;3945;48.952;9.506;2023-06-14T08:13:20;97636.97;;;24.58;40.60
7802;BME280;3945;48.952;9.506;2023-06-14T08:15:47;97640.16;;;24.72;43.31
7802;BME280;3945;48.952;9.506;2023-06-14T08:18:14;97636.19;;;24.94;40.44
7802;BME280;3945;48.952;9.506;2023-06-14T08:20:41;97645.06;;;25.03;40.53
7802;BME280;3945;48.952;9.506;2023-06-14T08:23:07;97635.28;;;25.14;39.99
7802;BME280;3945;48.952;9.506;2023-06-14T08:25:34;97637.41;;;25.33;41.85
7802;BME280;3945;48.952;9.506;2023-06-14T08:28:00;97637.91;;;25.51;40.31
7802;BME280;3945;48.952;9.506;2023-06-14T08:30:27;97630.34;;;25.44;39.49
7802;BME280;3945;48.952;9.506;2023-06-14T08:32:55;97634.28;;;25.59;40.88
7802;BME280;3945;48.952;9.506;2023-06-14T08:35:21;97638.22;;;25.74;39.67
7802;BME280;3945;48.952;9.506;2023-06-14T08:37:49;97634.16;;;25.67;38.07
7802;BME280;3945;48.952;9.506;2023-06-14T08:40:19;97638.72;;;25.63;39.24
7802;BME280;3945;48.952;9.506;2023-06-14T08:42:48;97645.19;;;25.71;38.57
7802;BME280;3945;48.952;9.506;2023-06-14T08:45:16;97644.00;;;25.84;37.72
7802;BME280;3945;48.952;9.506;2023-06-14T08:47:43;97646.16;;;26.34;39.37
7802;BME280;3945;48.952;9.506;2023-06-14T08:50:12;97656.56;;;27.07;35.78
7802;BME280;3945;48.952;9.506;2023-06-14T08:52:45;97659.66;;;27.41;37.20
7802;BME280;3945;48.952;9.506;2023-06-14T08:55:16;97663.81;;;27.70;34.59
7802;BME280;3945;48.952;9.506;2023-06-14T08:57:46;97656.44;;;28.12;36.29
7802;BME280;3945;48.952;9.506;2023-06-14T09:00:13;97652.63;;;28.36;33.31
7802;BME280;3945;48.952;9.506;2023-06-14T09:02:40;97662.50;;;28.63;34.19
7802;BME280;3945;48.952;9.506;2023-06-14T09:05:09;97658.44;;;28.77;33.40
7802;BME280;3945;48.952;9.506;2023-06-14T09:07:37;97660.31;;;28.72;33.64
7802;BME280;3945;48.952;9.506;2023-06-14T09:10:07;97655.88;;;28.87;32.46
7802;BME280;3945;48.952;9.506;2023-06-14T09:12:34;97661.38;;;28.87;33.88
7802;BME280;3945;48.952;9.506;2023-06-14T09:15:02;97651.56;;;28.86;32.92
7802;BME280;3945;48.952;9.506;2023-06-14T09:17:32;97645.06;;;28.98;32.06
7802;BME280;3945;48.952;9.506;2023-06-14T09:20:01;97654.66;;;28.85;32.51
7802;BME280;3945;48.952;9.506;2023-06-14T09:22:31;97662.38;;;29.02;32.11
7802;BME280;3945;48.952;9.506;2023-06-14T09:24:59;97659.06;;;29.16;33.67
7802;BME280;3945;48.952;9.506;2023-06-14T09:27:26;97655.59;;;29.45;32.32
7802;BME280;3945;48.952;9.506;2023-06-14T09:29:53;97647.53;;;29.33;30.87
7802;BME280;3945;48.952;9.506;2023-06-14T09:32:21;97659.84;;;29.42;32.07
7802;BME280;3945;48.952;9.506;2023-06-14T09:34:48;97661.44;;;29.43;30.32
7802;BME280;3945;48.952;9.506;2023-06-14T09:37:27;97658.59;;;29.10;31.38
7802;BME280;3945;48.952;9.506;2023-06-14T09:39:55;97656.75;;;29.18;31.72
7802;BME280;3945;48.952;9.506;2023-06-14T09:42:23;97663.59;;;29.31;30.74
7802;BME280;3945;48.952;9.506;2023-06-14T09:44:53;97671.56;;;29.39;30.71
7802;BME280;3945;48.952;9.506;2023-06-14T09:47:20;97667.41;;;29.49;29.72
7802;BME280;3945;48.952;9.506;2023-06-14T09:49:46;97660.28;;;29.74;29.83
7802;BME280;3945;48.952;9.506;2023-06-14T09:52:15;97659.91;;;30.06;30.13
7802;BME280;3945;48.952;9.506;2023-06-14T09:54:44;97667.06;;;30.14;28.49
7802;BME280;3945;48.952;9.506;2023-06-14T09:57:15;97667.41;;;30.12;29.46
7802;BME280;3945;48.952;9.506;2023-06-14T09:59:47;97657.81;;;30.29;29.22
7802;BME280;3945;48.952;9.506;2023-06-14T10:02:24;97662.50;;;30.28;30.31
7802;BME280;3945;48.952;9.506;2023-06-14T10:04:56;97662.56;;;30.32;29.09
7802;BME280;3945;48.952;9.506;2023-06-14T10:07:26;97654.00;;;30.04;28.49
7802;BME280;3945;48.952;9.506;2023-06-14T10:09:59;97660.84;;;29.87;29.13
7802;BME280;3945;48.952;9.506;2023-06-14T10:12:27;97661.22;;;30.19;29.62
7802;BME280;3945;48.952;9.506;2023-06-14T10:14:56;97659.69;;;30.58;28.74
7802;BME280;3945;48.952;9.506;2023-06-14T10:17:30;97669.28;;;30.79;29.66
7802;BME280;3945;48.952;9.506;2023-06-14T10:20:17;97662.97;;;31.19;29.74
7802;BME280;3945;48.952;9.506;2023-06-14T10:22:50;97656.19;;;31.09;28.65
7802;BME280;3945;48.952;9.506;2023-06-14T10:25:28;97662.09;;;31.08;28.22
7802;BME280;3945;48.952;9.506;2023-06-14T10:28:14;97656.75;;;30.85;28.52
7802;BME280;3945;48.952;9.506;2023-06-14T10:31:08;97649.56;;;30.70;29.09
7802;BME280;3945;48.952;9.506;2023-06-14T10:33:36;97654.97;;;30.59;29.47
7802;BME280;3945;48.952;9.506;2023-06-14T10:36:32;97662.63;;;30.80;27.32
7802;BME280;3945;48.952;9.506;2023-06-14T10:39:03;97648.41;;;31.18;29.15
7802;BME280;3945;48.952;9.506;2023-06-14T10:41:32;97651.34;;;31.47;26.66
7802;BME280;3945;48.952;9.506;2023-06-14T10:44:38;97659.75;;;31.13;26.51
7802;BME280;3945;48.952;9.506;2023-06-14T10:47:08;97656.22;;;31.13;29.16
7802;BME280;3945;48.952;9.506;2023-06-14T10:49:40;97654.06;;;31.43;28.13
7802;BME280;3945;48.952;9.506;2023-06-14T10:52:09;97649.00;;;31.52;28.76
7802;BME280;3945;48.952;9.506;2023-06-14T10:55:02;97652.16;;;31.54;28.11
7802;BME280;3945;48.952;9.506;2023-06-14T10:57:31;97656.72;;;31.29;27.93
7802;BME280;3945;48.952;9.506;2023-06-14T10:59:58;97650.59;;;30.98;28.01
7802;BME280;3945;48.952;9.506;2023-06-14T11:05:24;97652.81;;;31.30;27.20
7802;BME280;3945;48.952;9.506;2023-06-14T11:08:15;97649.72;;;31.38;28.44
7802;BME280;3945;48.952;9.506;2023-06-14T11:10:45;97647.75;;;31.39;28.32
7802;BME280;3945;48.952;9.506;2023-06-14T11:13:11;97643.53;;;30.97;27.06
7802;BME280;3945;48.952;9.506;2023-06-14T11:15:39;97639.75;;;30.28;29.52
7802;BME280;3945;48.952;9.506;2023-06-14T11:18:11;97644.81;;;29.59;28.20
7802;BME280;3945;48.952;9.506;2023-06-14T11:20:39;97647.13;;;29.90;28.71
7802;BME280;3945;48.952;9.506;2023-06-14T11:23:06;97641.25;;;30.22;29.11
7802;BME280;3945;48.952;9.506;2023-06-14T11:25:33;97644.81;;;30.63;29.03
7802;BME280;3945;48.952;9.506;2023-06-14T11:27:59;97650.84;;;30.79;26.29
7802;BME280;3945;48.952;9.506;2023-06-14T11:30:26;97650.31;;;31.11;27.75
7802;BME280;3945;48.952;9.506;2023-06-14T11:32:55;97647.84;;;31.57;27.89
7802;BME280;3945;48.952;9.506;2023-06-14T11:35:24;97652.69;;;31.74;27.21
7802;BME280;3945;48.952;9.506;2023-06-14T11:37:52;97644.50;;;32.06;27.63
7802;BME280;3945;48.952;9.506;2023-06-14T11:40:19;97636.75;;;32.26;25.60
7802;BME280;3945;48.952;9.506;2023-06-14T11:42:45;97636.75;;;32.50;26.77
7802;BME280;3945;48.952;9.506;2023-06-14T11:45:12;97641.28;;;31.79;27.09
7802;BME280;3945;48.952;9.506;2023-06-14T11:47:39;97645.19;;;31.09;28.86
7802;BME280;3945;48.952;9.506;2023-06-14T11:50:09;97643.19;;;30.58;28.76
7802;BME280;3945;48.952;9.506;2023-06-14T11:52:38;97633.69;;;29.78;29.06
7802;BME280;3945;48.952;9.506;2023-06-14T11:55:06;97646.19;;;29.20;29.00
7802;BME280;3945;48.952;9.506;2023-06-14T11:57:34;97643.66;;;28.81;30.14
7802;BME280;3945;48.952;9.506;2023-06-14T12:00:03;97640.00;;;28.31;30.43
7802;BME280;3945;48.952;9.506;2023-06-14T12:02:32;97641.00;;;28.01;30.64
7802;BME280;3945;48.952;9.506;2023-06-14T12:05:04;97643.31;;;27.79;31.44
7802;BME280;3945;48.952;9.506;2023-06-14T12:07:31;97636.47;;;27.35;31.63
7802;BME280;3945;48.952;9.506;2023-06-14T12:10:06;97641.59;;;27.36;32.09
7802;BME280;3945;48.952;9.506;2023-06-14T12:12:35;97633.72;;;27.89;31.20
7802;BME280;3945;48.952;9.506;2023-06-14T12:15:03;97630.09;;;28.46;29.61
7802;BME280;3945;48.952;9.506;2023-06-14T12:17:32;97632.13;;;29.21;31.32
7802;BME280;3945;48.952;9.506;2023-06-14T12:20:05;97625.25;;;29.94;30.62
7802;BME280;3945;48.952;9.506;2023-06-14T12:22:33;97626.34;;;30.23;30.45
7802;BME280;3945;48.952;9.506;2023-06-14T12:24:59;97629.81;;;30.53;30.50
7802;BME280;3945;48.952;9.506;2023-06-14T12:27:27;97636.13;;;30.20;28.53
7802;BME280;3945;48.952;9.506;2023-06-14T12:30:00;97632.44;;;29.42;28.79
7802;BME280;3945;48.952;9.506;2023-06-14T12:32:28;97636.88;;;28.75;29.73
7802;BME280;3945;48.952;9.506;2023-06-14T12:34:55;97634.06;;;28.49;30.36
7802;BME280;3945;48.952;9.506;2023-06-14T12:37:22;97636.56;;;28.34;30.09
7802;BME280;3945;48.952;9.506;2023-06-14T12:39:48;97638.56;;;28.15;30.80
7802;BME280;3945;48.952;9.506;2023-06-14T12:42:16;97640.56;;;27.98;31.52
7802;BME280;3945;48.952;9.506;2023-06-14T12:44:44;97636.31;;;28.01;30.91
7802;BME280;3945;48.952;9.506;2023-06-14T12:47:11;97635.56;;;28.04;31.40
7802;BME280;3945;48.952;9.506;2023-06-14T12:49:39;97635.22;;;28.06;30.50
7802;BME280;3945;48.952;9.506;2023-06-14T12:52:07;97632.72;;;28.39;32.73
7802;BME280;3945;48.952;9.506;2023-06-14T12:54:34;97626.81;;;28.83;29.85
7802;BME280;3945;48.952;9.506;2023-06-14T12:57:00;97632.00;;;28.65;29.98
7802;BME280;3945;48.952;9.506;2023-06-14T12:59:28;97631.78;;;28.09;30.66
7802;BME280;3945;48.952;9.506;2023-06-14T13:02:09;97643.22;;;27.56;31.26
7802;BME280;3945;48.952;9.506;2023-06-14T13:04:37;97640.69;;;27.13;31.55
7802;BME280;3945;48.952;9.506;2023-06-14T13:07:04;97643.16;;;26.87;33.26
7802;BME280;3945;48.952;9.506;2023-06-14T13:09:31;97643.53;;;26.69;32.46
7802;BME280;3945;48.952;9.506;2023-06-14T13:11:57;97644.84;;;26.60;32.32
7802;BME280;3945;48.952;9.506;2023-06-14T13:14:24;97650.13;;;27.00;33.05
7802;BME280;3945;48.952;9.506;2023-06-14T13:16:51;97639.00;;;27.59;34.47
7802;BME280;3945;48.952;9.506;2023-06-14T13:19:19;97635.47;;;28.16;31.81
7802;BME280;3945;48.952;9.506;2023-06-14T13:21:45;97641.19;;;28.53;31.41
7802;BME280;3945;48.952;9.506;2023-06-14T13:24:12;97636.06;;;28.74;30.73
7802;BME280;3945;48.952;9.506;2023-06-14T13:26:38;97630.22;;;28.99;29.19
7802;BME280;3945;48.952;9.506;2023-06-14T13:29:05;97632.69;;;29.07;28.77
7802;BME280;3945;48.952;9.506;2023-06-14T13:31:32;97637.13;;;29.16;30.41